sensor_id;sensor_type;location;lat;lon;timestamp;P1;durP1;ratioP1;P2;durP2;ratioP2
75230;SDS011;63814;50.118;8.714;2022-10-31T00:01:21;21.27;;;11.00;;
75230;SDS011;63814;50.118;8.714;2022-10-31T00:03:48;18.07;;;11.60;;
75230;SDS011;63814;50.118;8.714;2022-10-31T00:06:15;16.93;;;11.40;;
75230;SDS011;63814;50.118;8.714;2022-10-31T00:08:43;16.17;;;10.57;;
75230;SDS011;63814;50.118;8.714;2022-10-31T00:11:09;21.63;;;11.70;;
75230;SDS011;63814;50.118;8.714;2022-10-31T00:13:38;17.60;;;11.93;;
75230;SDS011;63814;50.118;8.714;2022-10-31T00:16:05;17.57;;;11.87;;
75230;SDS011;63814;50.118;8.714;2022-10-31T00:18:38;18.67;;;11.30;;
75230;SDS011;63814;50.118;8.714;2022-10-31T00:21:05;19.77;;;11.53;;
75230;SDS011;63814;50.118;8.714;2022-10-31T00:23:31;18.57;;;11.77;;
75230;SDS011;63814;50.118;8.714;2022-10-31T00:26:00;19.87;;;12.10;;
75230;SDS011;63814;50.118;8.714;2022-10-31T00:28:27;17.37;;;12.77;;
75230;SDS011;63814;50.118;8.714;2022-10-31T00:30:58;17.27;;;11.23;;
75230;SDS011;63814;50.118;8.714;2022-10-31T00:33:26;17.50;;;11.27;;
75230;SDS011;63814;50.118;8.714;2022-10-31T00:35:52;16.13;;;10.77;;
75230;SDS011;63814;50.118;8.714;2022-10-31T00:38:19;18.60;;;11.40;;
75230;SDS011;63814;50.118;8.714;2022-10-31T00:40:45;16.40;;;11.10;;
75230;SDS011;63814;50.118;8.714;2022-10-31T00:43:12;18.00;;;11.77;;
75230;SDS011;63814;50.118;8.714;2022-10-31T00:45:38;19.27;;;11.67;;
75230;SDS011;63814;50.118;8.714;2022-10-31T00:48:06;17.13;;;11.53;;
75230;SDS011;63814;50.118;8.714;2022-10-31T00:50:32;17.13;;;11.63;;
75230;SDS011;63814;50.118;8.714;2022-10-31T00:52:59;15.50;;;11.80;;
75230;SDS011;63814;50.118;8.714;2022-10-31T00:55:25;16.40;;;11.37;;
75230;SDS011;63814;50.118;8.714;2022-10-31T00:57:52;19.47;;;11.00;;
75230;SDS011;63814;50.118;8.714;2022-10-31T01:00:18;16.67;;;11.20;;
75230;SDS011;63814;50.118;8.714;2022-10-31T01:02:45;17.37;;;11.47;;
75230;SDS011;63814;50.118;8.714;2022-10-31T01:05:13;16.40;;;11.03;;
75230;SDS011;63814;50.118;8.714;2022-10-31T01:07:40;20.37;;;11.57;;
75230;SDS011;63814;50.118;8.714;2022-10-31T01:10:08;20.97;;;12.03;;
75230;SDS011;63814;50.118;8.714;2022-10-31T01:12:35;17.47;;;11.30;;
75230;SDS011;63814;50.118;8.714;2022-10-31T01:15:02;16.80;;;11.20;;
75230;SDS011;63814;50.118;8.714;2022-10-31T01:17:29;16.60;;;10.63;;
75230;SDS011;63814;50.118;8.714;2022-10-31T01:19:56;19.53;;;10.60;;
75230;SDS011;63814;50.118;8.714;2022-10-31T01:22:24;17.00;;;10.00;;
75230;SDS011;63814;50.118;8.714;2022-10-31T01:24:50;17.50;;;11.37;;
75230;SDS011;63814;50.118;8.714;2022-10-31T01:27:17;17.07;;;11.03;;
75230;SDS011;63814;50.118;8.714;2022-10-31T01:29:43;15.03;;;10.77;;
75230;SDS011;63814;50.118;8.714;2022-10-31T01:32:10;15.83;;;9.87;;
75230;SDS011;63814;50.118;8.714;2022-10-31T01:34:36;15.63;;;10.53;;
75230;SDS011;63814;50.118;8.714;2022-10-31T01:37:03;18.43;;;11.07;;
75230;SDS011;63814;50.118;8.714;2022-10-31T01:39:30;21.93;;;10.20;;
75230;SDS011;63814;50.118;8.714;2022-10-31T01:41:57;17.67;;;10.33;;
75230;SDS011;63814;50.118;8.714;2022-10-31T01:47:27;17.77;;;11.13;;
75230;SDS011;63814;50.118;8.714;2022-10-31T01:50:04;20.87;;;11.00;;
75230;SDS011;63814;50.118;8.714;2022-10-31T01:52:36;17.20;;;10.83;;
75230;SDS011;63814;50.118;8.714;2022-10-31T01:55:09;18.27;;;10.50;;
75230;SDS011;63814;50.118;8.714;2022-10-31T01:57:40;15.67;;;10.17;;
75230;SDS011;63814;50.118;8.714;2022-10-31T02:00:10;18.00;;;10.90;;
75230;SDS011;63814;50.118;8.714;2022-10-31T02:02:38;15.00;;;10.70;;
75230;SDS011;63814;50.118;8.714;2022-10-31T02:05:05;18.00;;;11.23;;
75230;SDS011;63814;50.118;8.714;2022-10-31T02:07:36;14.57;;;10.17;;
75230;SDS011;63814;50.118;8.714;2022-10-31T02:10:06;19.63;;;10.33;;
75230;SDS011;63814;50.118;8.714;2022-10-31T02:12:34;15.00;;;10.53;;
75230;SDS011;63814;50.118;8.714;2022-10-31T02:15:02;14.40;;;10.40;;
75230;SDS011;63814;50.118;8.714;2022-10-31T02:17:30;16.23;;;10.37;;
75230;SDS011;63814;50.118;8.714;2022-10-31T02:20:00;14.67;;;10.00;;
75230;SDS011;63814;50.118;8.714;2022-10-31T02:22:37;15.87;;;9.77;;
75230;SDS011;63814;50.118;8.714;2022-10-31T02:25:21;18.03;;;9.57;;
75230;SDS011;63814;50.118;8.714;2022-10-31T02:28:17;13.90;;;9.40;;
75230;SDS011;63814;50.118;8.714;2022-10-31T02:31:01;13.70;;;9.47;;
75230;SDS011;63814;50.118;8.714;2022-10-31T02:33:43;14.67;;;10.33;;
75230;SDS011;63814;50.118;8.714;2022-10-31T02:36:16;12.33;;;8.87;;
75230;SDS011;63814;50.118;8.714;2022-10-31T02:38:50;14.27;;;10.17;;
75230;SDS011;63814;50.118;8.714;2022-10-31T02:41:25;15.00;;;9.97;;
75230;SDS011;63814;50.118;8.714;2022-10-31T02:44:00;14.70;;;9.13;;
75230;SDS011;63814;50.118;8.714;2022-10-31T02:46:37;13.10;;;9.97;;
75230;SDS011;63814;50.118;8.714;2022-10-31T02:49:11;17.37;;;10.50;;
75230;SDS011;63814;50.118;8.714;2022-10-31T02:51:44;16.13;;;9.83;;
75230;SDS011;63814;50.118;8.714;2022-10-31T02:54:17;14.83;;;9.67;;
75230;SDS011;63814;50.118;8.714;2022-10-31T02:56:45;13.43;;;9.97;;
75230;SDS011;63814;50.118;8.714;2022-10-31T02:59:12;16.07;;;9.30;;
75230;SDS011;63814;50.118;8.714;2022-10-31T03:01:44;13.60;;;9.17;;
75230;SDS011;63814;50.118;8.714;2022-10-31T03:04:27;15.90;;;9.40;;
75230;SDS011;63814;50.118;8.714;2022-10-31T03:07:07;14.33;;;9.83;;
75230;SDS011;63814;50.118;8.714;2022-10-31T03:09:40;13.23;;;9.30;;
75230;SDS011;63814;50.118;8.714;2022-10-31T03:12:11;16.10;;;8.90;;
75230;SDS011;63814;50.118;8.714;2022-10-31T03:14:47;14.87;;;8.57;;
75230;SDS011;63814;50.118;8.714;2022-10-31T03:17:21;14.93;;;8.50;;
75230;SDS011;63814;50.118;8.714;2022-10-31T03:19:52;15.37;;;9.23;;
75230;SDS011;63814;50.118;8.714;2022-10-31T03:22:22;12.87;;;8.93;;
75230;SDS011;63814;50.118;8.714;2022-10-31T03:24:51;13.87;;;9.07;;
75230;SDS011;63814;50.118;8.714;2022-10-31T03:27:21;12.13;;;9.17;;
75230;SDS011;63814;50.118;8.714;2022-10-31T03:29:50;19.30;;;9.40;;
75230;SDS011;63814;50.118;8.714;2022-10-31T03:32:19;16.57;;;9.13;;
75230;SDS011;63814;50.118;8.714;2022-10-31T03:34:50;15.13;;;9.10;;
75230;SDS011;63814;50.118;8.714;2022-10-31T03:37:22;13.50;;;9.07;;
75230;SDS011;63814;50.118;8.714;2022-10-31T03:39:52;14.47;;;9.13;;
75230;SDS011;63814;50.118;8.714;2022-10-31T03:42:21;17.93;;;9.47;;
75230;SDS011;63814;50.118;8.714;2022-10-31T03:44:52;20.07;;;9.97;;
75230;SDS011;63814;50.118;8.714;2022-10-31T03:47:23;12.63;;;8.20;;
75230;SDS011;63814;50.118;8.714;2022-10-31T03:49:50;15.37;;;9.00;;
75230;SDS011;63814;50.118;8.714;2022-10-31T03:52:19;13.80;;;8.40;;
75230;SDS011;63814;50.118;8.714;2022-10-31T03:54:52;15.50;;;8.60;;
75230;SDS011;63814;50.118;8.714;2022-10-31T03:57:23;15.93;;;8.90;;
75230;SDS011;63814;50.118;8.714;2022-10-31T03:59:53;13.07;;;9.20;;
75230;SDS011;63814;50.118;8.714;2022-10-31T04:02:27;13.70;;;8.63;;
75230;SDS011;63814;50.118;8.714;2022-10-31T04:04:56;13.70;;;8.73;;
75230;SDS011;63814;50.118;8.714;2022-10-31T04:07:24;15.77;;;8.53;;
75230;SDS011;63814;50.118;8.714;2022-10-31T04:09:53;19.80;;;9.57;;
75230;SDS011;63814;50.118;8.714;2022-10-31T04:12:21;11.87;;;8.50;;
75230;SDS011;63814;50.118;8.714;2022-10-31T04:14:50;14.00;;;8.70;;
75230;SDS011;63814;50.118;8.714;2022-10-31T04:17:19;13.83;;;9.33;;
75230;SDS011;63814;50.118;8.714;2022-10-31T04:19:50;12.43;;;8.57;;
75230;SDS011;63814;50.118;8.714;2022-10-31T04:22:17;14.27;;;8.73;;
75230;SDS011;63814;50.118;8.714;2022-10-31T04:24:43;16.73;;;8.90;;
75230;SDS011;63814;50.118;8.714;2022-10-31T04:27:10;19.80;;;9.17;;
75230;SDS011;63814;50.118;8.714;2022-10-31T04:29:37;16.20;;;8.90;;
75230;SDS011;63814;50.118;8.714;2022-10-31T04:32:03;13.17;;;8.17;;
75230;SDS011;63814;50.118;8.714;2022-10-31T04:34:30;16.03;;;8.43;;
75230;SDS011;63814;50.118;8.714;2022-10-31T04:36:58;12.97;;;8.70;;
75230;SDS011;63814;50.118;8.714;2022-10-31T04:39:24;12.50;;;8.73;;
75230;SDS011;63814;50.118;8.714;2022-10-31T04:41:51;13.97;;;8.40;;
75230;SDS011;63814;50.118;8.714;2022-10-31T04:44:17;12.67;;;8.10;;
75230;SDS011;63814;50.118;8.714;2022-10-31T04:46:44;12.83;;;8.13;;
75230;SDS011;63814;50.118;8.714;2022-10-31T04:49:10;12.90;;;8.67;;
75230;SDS011;63814;50.118;8.714;2022-10-31T04:51:37;15.97;;;8.43;;
75230;SDS011;63814;50.118;8.714;2022-10-31T04:54:05;13.33;;;8.70;;
75230;SDS011;63814;50.118;8.714;2022-10-31T04:56:31;13.20;;;8.23;;
75230;SDS011;63814;50.118;8.714;2022-10-31T04:58:58;11.97;;;8.13;;
75230;SDS011;63814;50.118;8.714;2022-10-31T05:01:24;13.77;;;8.43;;
75230;SDS011;63814;50.118;8.714;2022-10-31T05:03:51;13.43;;;7.97;;
75230;SDS011;63814;50.118;8.714;2022-10-31T05:06:17;17.03;;;8.80;;
75230;SDS011;63814;50.118;8.714;2022-10-31T05:08:44;15.43;;;8.50;;
75230;SDS011;63814;50.118;8.714;2022-10-31T05:11:12;12.30;;;8.17;;
75230;SDS011;63814;50.118;8.714;2022-10-31T05:13:38;17.37;;;8.83;;
75230;SDS011;63814;50.118;8.714;2022-10-31T05:16:05;13.33;;;8.53;;
75230;SDS011;63814;50.118;8.714;2022-10-31T05:18:32;14.23;;;9.80;;
75230;SDS011;63814;50.118;8.714;2022-10-31T05:20:58;13.27;;;9.90;;
75230;SDS011;63814;50.118;8.714;2022-10-31T05:23:25;14.77;;;11.37;;
75230;SDS011;63814;50.118;8.714;2022-10-31T05:25:51;12.73;;;10.73;;
75230;SDS011;63814;50.118;8.714;2022-10-31T05:28:19;17.97;;;11.10;;
75230;SDS011;63814;50.118;8.714;2022-10-31T05:30:45;18.87;;;11.40;;
75230;SDS011;63814;50.118;8.714;2022-10-31T05:33:12;16.40;;;10.67;;
75230;SDS011;63814;50.118;8.714;2022-10-31T05:35:38;20.30;;;12.30;;
75230;SDS011;63814;50.118;8.714;2022-10-31T05:38:05;15.53;;;11.47;;
75230;SDS011;63814;50.118;8.714;2022-10-31T05:40:31;16.77;;;12.20;;
75230;SDS011;63814;50.118;8.714;2022-10-31T05:42:58;17.63;;;12.47;;
75230;SDS011;63814;50.118;8.714;2022-10-31T05:45:26;20.73;;;13.17;;
75230;SDS011;63814;50.118;8.714;2022-10-31T05:47:52;15.03;;;11.10;;
75230;SDS011;63814;50.118;8.714;2022-10-31T05:50:19;17.27;;;11.93;;
75230;SDS011;63814;50.118;8.714;2022-10-31T05:52:46;13.70;;;11.17;;
75230;SDS011;63814;50.118;8.714;2022-10-31T05:55:12;12.33;;;10.00;;
75230;SDS011;63814;50.118;8.714;2022-10-31T05:57:39;16.33;;;11.97;;
75230;SDS011;63814;50.118;8.714;2022-10-31T06:00:06;16.10;;;11.00;;
75230;SDS011;63814;50.118;8.714;2022-10-31T06:02:35;13.23;;;10.63;;
75230;SDS011;63814;50.118;8.714;2022-10-31T06:05:01;17.80;;;10.77;;
75230;SDS011;63814;50.118;8.714;2022-10-31T06:07:31;19.03;;;10.97;;
75230;SDS011;63814;50.118;8.714;2022-10-31T06:09:58;15.97;;;10.10;;
75230;SDS011;63814;50.118;8.714;2022-10-31T06:12:25;14.90;;;10.17;;
75230;SDS011;63814;50.118;8.714;2022-10-31T06:14:51;15.63;;;10.00;;
75230;SDS011;63814;50.118;8.714;2022-10-31T06:17:18;20.00;;;11.93;;
75230;SDS011;63814;50.118;8.714;2022-10-31T06:19:45;18.63;;;13.17;;
75230;SDS011;63814;50.118;8.714;2022-10-31T06:22:12;17.40;;;12.53;;
75230;SDS011;63814;50.118;8.714;2022-10-31T06:24:38;16.80;;;11.60;;
75230;SDS011;63814;50.118;8.714;2022-10-31T06:27:05;16.07;;;10.60;;
75230;SDS011;63814;50.118;8.714;2022-10-31T06:29:32;13.87;;;9.83;;
75230;SDS011;63814;50.118;8.714;2022-10-31T06:31:58;17.80;;;10.37;;
75230;SDS011;63814;50.118;8.714;2022-10-31T06:34:24;17.47;;;10.90;;
75230;SDS011;63814;50.118;8.714;2022-10-31T06:36:52;16.83;;;11.17;;
75230;SDS011;63814;50.118;8.714;2022-10-31T06:39:19;17.33;;;12.43;;
75230;SDS011;63814;50.118;8.714;2022-10-31T06:41:46;22.13;;;13.63;;
75230;SDS011;63814;50.118;8.714;2022-10-31T06:44:13;23.57;;;12.97;;
75230;SDS011;63814;50.118;8.714;2022-10-31T06:46:39;17.97;;;12.33;;
75230;SDS011;63814;50.118;8.714;2022-10-31T06:49:06;22.37;;;12.03;;
75230;SDS011;63814;50.118;8.714;2022-10-31T06:51:32;22.77;;;13.37;;
75230;SDS011;63814;50.118;8.714;2022-10-31T06:54:00;20.43;;;12.83;;
75230;SDS011;63814;50.118;8.714;2022-10-31T06:56:27;17.43;;;10.97;;
75230;SDS011;63814;50.118;8.714;2022-10-31T06:58:53;13.73;;;9.37;;
75230;SDS011;63814;50.118;8.714;2022-10-31T07:01:20;18.23;;;10.83;;
75230;SDS011;63814;50.118;8.714;2022-10-31T07:03:46;15.93;;;10.50;;
75230;SDS011;63814;50.118;8.714;2022-10-31T07:06:13;14.40;;;11.00;;
75230;SDS011;63814;50.118;8.714;2022-10-31T07:08:39;24.03;;;13.63;;
75230;SDS011;63814;50.118;8.714;2022-10-31T07:11:07;17.97;;;10.37;;
75230;SDS011;63814;50.118;8.714;2022-10-31T07:13:34;14.53;;;9.40;;
75230;SDS011;63814;50.118;8.714;2022-10-31T07:16:01;14.07;;;11.03;;
75230;SDS011;63814;50.118;8.714;2022-10-31T07:18:28;17.13;;;11.63;;
75230;SDS011;63814;50.118;8.714;2022-10-31T07:20:55;20.03;;;11.17;;
75230;SDS011;63814;50.118;8.714;2022-10-31T07:23:21;18.80;;;10.57;;
75230;SDS011;63814;50.118;8.714;2022-10-31T07:25:48;17.93;;;10.17;;
75230;SDS011;63814;50.118;8.714;2022-10-31T07:28:16;13.47;;;9.50;;
75230;SDS011;63814;50.118;8.714;2022-10-31T07:30:42;14.30;;;9.93;;
75230;SDS011;63814;50.118;8.714;2022-10-31T07:33:09;13.37;;;10.37;;
75230;SDS011;63814;50.118;8.714;2022-10-31T07:35:35;14.10;;;9.70;;
75230;SDS011;63814;50.118;8.714;2022-10-31T07:38:08;15.17;;;9.90;;
75230;SDS011;63814;50.118;8.714;2022-10-31T07:40:36;13.40;;;9.40;;
75230;SDS011;63814;50.118;8.714;2022-10-31T07:43:03;15.73;;;9.77;;
75230;SDS011;63814;50.118;8.714;2022-10-31T07:45:31;15.63;;;9.70;;
75230;SDS011;63814;50.118;8.714;2022-10-31T07:47:57;15.13;;;9.13;;
75230;SDS011;63814;50.118;8.714;2022-10-31T07:50:24;13.93;;;8.93;;
75230;SDS011;63814;50.118;8.714;2022-10-31T07:52:58;15.23;;;8.70;;
75230;SDS011;63814;50.118;8.714;2022-10-31T07:55:26;12.93;;;8.87;;
75230;SDS011;63814;50.118;8.714;2022-10-31T07:57:56;12.83;;;9.07;;
75230;SDS011;63814;50.118;8.714;2022-10-31T08:00:24;14.27;;;9.07;;
75230;SDS011;63814;50.118;8.714;2022-10-31T08:02:59;14.23;;;9.57;;
75230;SDS011;63814;50.118;8.714;2022-10-31T08:05:26;16.07;;;10.03;;
75230;SDS011;63814;50.118;8.714;2022-10-31T08:07:53;14.93;;;9.57;;
75230;SDS011;63814;50.118;8.714;2022-10-31T08:10:20;16.97;;;10.27;;
75230;SDS011;63814;50.118;8.714;2022-10-31T08:12:46;12.80;;;9.57;;
75230;SDS011;63814;50.118;8.714;2022-10-31T08:15:13;18.77;;;10.10;;
75230;SDS011;63814;50.118;8.714;2022-10-31T08:17:40;12.80;;;9.23;;
75230;SDS011;63814;50.118;8.714;2022-10-31T08:20:08;14.97;;;9.67;;
75230;SDS011;63814;50.118;8.714;2022-10-31T08:22:35;15.30;;;10.73;;
75230;SDS011;63814;50.118;8.714;2022-10-31T08:25:01;16.20;;;10.93;;
75230;SDS011;63814;50.118;8.714;2022-10-31T08:27:28;20.43;;;13.37;;
75230;SDS011;63814;50.118;8.714;2022-10-31T08:29:55;25.73;;;16.53;;
75230;SDS011;63814;50.118;8.714;2022-10-31T08:32:21;21.63;;;14.57;;
75230;SDS011;63814;50.118;8.714;2022-10-31T08:34:48;21.87;;;14.27;;
75230;SDS011;63814;50.118;8.714;2022-10-31T08:37:15;18.43;;;12.97;;
75230;SDS011;63814;50.118;8.714;2022-10-31T08:39:44;17.50;;;12.07;;
75230;SDS011;63814;50.118;8.714;2022-10-31T08:42:11;16.20;;;12.53;;
75230;SDS011;63814;50.118;8.714;2022-10-31T08:44:38;17.27;;;12.00;;
75230;SDS011;63814;50.118;8.714;2022-10-31T08:47:04;19.90;;;12.27;;
75230;SDS011;63814;50.118;8.714;2022-10-31T08:49:31;15.50;;;11.77;;
75230;SDS011;63814;50.118;8.714;2022-10-31T08:51:57;17.13;;;12.17;;
75230;SDS011;63814;50.118;8.714;2022-10-31T08:54:25;16.23;;;11.77;;
75230;SDS011;63814;50.118;8.714;2022-10-31T08:56:53;15.80;;;12.10;;
75230;SDS011;63814;50.118;8.714;2022-10-31T08:59:20;18.23;;;12.90;;
75230;SDS011;63814;50.118;8.714;2022-10-31T09:01:46;15.87;;;12.00;;
75230;SDS011;63814;50.118;8.714;2022-10-31T09:04:13;18.20;;;12.40;;
75230;SDS011;63814;50.118;8.714;2022-10-31T09:06:39;16.93;;;11.70;;
75230;SDS011;63814;50.118;8.714;2022-10-31T09:09:06;18.80;;;12.17;;
75230;SDS011;63814;50.118;8.714;2022-10-31T09:11:34;15.73;;;12.17;;
75230;SDS011;63814;50.118;8.714;2022-10-31T09:14:00;19.37;;;12.30;;
75230;SDS011;63814;50.118;8.714;2022-10-31T09:16:27;17.03;;;12.10;;
75230;SDS011;63814;50.118;8.714;2022-10-31T09:18:53;17.83;;;12.10;;
75230;SDS011;63814;50.118;8.714;2022-10-31T09:21:20;16.80;;;11.37;;
75230;SDS011;63814;50.118;8.714;2022-10-31T09:23:46;23.00;;;16.13;;
75230;SDS011;63814;50.118;8.714;2022-10-31T09:26:13;19.37;;;15.67;;
75230;SDS011;63814;50.118;8.714;2022-10-31T09:28:40;16.93;;;12.30;;
75230;SDS011;63814;50.118;8.714;2022-10-31T09:31:07;17.47;;;12.27;;
75230;SDS011;63814;50.118;8.714;2022-10-31T09:33:34;13.00;;;10.33;;
75230;SDS011;63814;50.118;8.714;2022-10-31T09:36:00;18.83;;;11.37;;
75230;SDS011;63814;50.118;8.714;2022-10-31T09:38:27;13.73;;;11.53;;
75230;SDS011;63814;50.118;8.714;2022-10-31T09:40:55;19.87;;;11.53;;
75230;SDS011;63814;50.118;8.714;2022-10-31T09:43:29;16.50;;;10.37;;
75230;SDS011;63814;50.118;8.714;2022-10-31T09:46:04;14.60;;;9.90;;
75230;SDS011;63814;50.118;8.714;2022-10-31T09:48:39;18.20;;;12.23;;
75230;SDS011;63814;50.118;8.714;2022-10-31T09:51:17;14.07;;;11.43;;
75230;SDS011;63814;50.118;8.714;2022-10-31T09:53:48;14.63;;;11.53;;
75230;SDS011;63814;50.118;8.714;2022-10-31T09:56:20;19.17;;;11.87;;
75230;SDS011;63814;50.118;8.714;2022-10-31T09:58:50;20.97;;;15.37;;
75230;SDS011;63814;50.118;8.714;2022-10-31T10:04:16;18.30;;;10.93;;
75230;SDS011;63814;50.118;8.714;2022-10-31T10:06:54;14.93;;;10.60;;
75230;SDS011;63814;50.118;8.714;2022-10-31T10:09:21;18.50;;;13.57;;
75230;SDS011;63814;50.118;8.714;2022-10-31T10:11:54;16.15;;;11.63;;
75230;SDS011;63814;50.118;8.714;2022-10-31T10:14:32;16.20;;;10.20;;
75230;SDS011;63814;50.118;8.714;2022-10-31T10:17:13;13.02;;;9.82;;
75230;SDS011;63814;50.118;8.714;2022-10-31T10:19:55;14.73;;;10.93;;
75230;SDS011;63814;50.118;8.714;2022-10-31T10:22:35;15.40;;;11.02;;
75230;SDS011;63814;50.118;8.714;2022-10-31T10:25:12;15.93;;;10.35;;
75230;SDS011;63814;50.118;8.714;2022-10-31T10:27:46;18.67;;;11.80;;
75230;SDS011;63814;50.118;8.714;2022-10-31T10:30:18;14.13;;;11.20;;
75230;SDS011;63814;50.118;8.714;2022-10-31T10:32:49;18.90;;;11.13;;
75230;SDS011;63814;50.118;8.714;2022-10-31T10:35:20;17.83;;;10.82;;
75230;SDS011;63814;50.118;8.714;2022-10-31T10:37:50;17.10;;;10.15;;
75230;SDS011;63814;50.118;8.714;2022-10-31T10:40:21;17.90;;;10.98;;
75230;SDS011;63814;50.118;8.714;2022-10-31T10:42:53;14.32;;;10.23;;
75230;SDS011;63814;50.118;8.714;2022-10-31T10:45:43;24.90;;;14.52;;
75230;SDS011;63814;50.118;8.714;2022-10-31T10:48:47;21.58;;;12.60;;
75230;SDS011;63814;50.118;8.714;2022-10-31T10:51:22;18.30;;;12.15;;
75230;SDS011;63814;50.118;8.714;2022-10-31T10:54:01;16.65;;;10.65;;
75230;SDS011;63814;50.118;8.714;2022-10-31T10:56:48;17.92;;;10.13;;
75230;SDS011;63814;50.118;8.714;2022-10-31T10:59:21;19.98;;;11.02;;
75230;SDS011;63814;50.118;8.714;2022-10-31T11:01:49;16.77;;;9.73;;
75230;SDS011;63814;50.118;8.714;2022-10-31T11:04:25;15.60;;;9.82;;
75230;SDS011;63814;50.118;8.714;2022-10-31T11:07:02;17.50;;;10.00;;
75230;SDS011;63814;50.118;8.714;2022-10-31T11:09:30;14.05;;;9.73;;
75230;SDS011;63814;50.118;8.714;2022-10-31T11:11:58;25.95;;;15.32;;
75230;SDS011;63814;50.118;8.714;2022-10-31T11:14:26;21.50;;;13.93;;
75230;SDS011;63814;50.118;8.714;2022-10-31T11:16:54;15.55;;;10.52;;
75230;SDS011;63814;50.118;8.714;2022-10-31T11:19:34;15.50;;;9.52;;
75230;SDS011;63814;50.118;8.714;2022-10-31T11:22:05;21.73;;;11.40;;
75230;SDS011;63814;50.118;8.714;2022-10-31T11:24:36;19.35;;;10.70;;
75230;SDS011;63814;50.118;8.714;2022-10-31T11:27:11;13.55;;;10.40;;
75230;SDS011;63814;50.118;8.714;2022-10-31T11:29:40;16.85;;;10.52;;
75230;SDS011;63814;50.118;8.714;2022-10-31T11:32:07;15.32;;;10.30;;
75230;SDS011;63814;50.118;8.714;2022-10-31T11:34:45;17.08;;;11.18;;
75230;SDS011;63814;50.118;8.714;2022-10-31T11:37:15;13.15;;;9.75;;
75230;SDS011;63814;50.118;8.714;2022-10-31T11:39:48;16.33;;;11.15;;
75230;SDS011;63814;50.118;8.714;2022-10-31T11:42:19;17.23;;;10.75;;
75230;SDS011;63814;50.118;8.714;2022-10-31T11:44:48;18.17;;;10.85;;
75230;SDS011;63814;50.118;8.714;2022-10-31T11:47:16;17.20;;;10.50;;
75230;SDS011;63814;50.118;8.714;2022-10-31T11:49:48;15.75;;;10.13;;
75230;SDS011;63814;50.118;8.714;2022-10-31T11:52:16;18.08;;;10.25;;
75230;SDS011;63814;50.118;8.714;2022-10-31T11:54:45;18.98;;;10.48;;
75230;SDS011;63814;50.118;8.714;2022-10-31T11:57:25;15.88;;;10.52;;
75230;SDS011;63814;50.118;8.714;2022-10-31T11:59:54;19.25;;;11.45;;
75230;SDS011;63814;50.118;8.714;2022-10-31T12:02:21;22.55;;;10.80;;
75230;SDS011;63814;50.118;8.714;2022-10-31T12:04:50;17.55;;;11.43;;
75230;SDS011;63814;50.118;8.714;2022-10-31T12:07:22;26.67;;;12.95;;
75230;SDS011;63814;50.118;8.714;2022-10-31T12:09:49;22.73;;;12.25;;
75230;SDS011;63814;50.118;8.714;2022-10-31T12:12:23;18.20;;;10.65;;
75230;SDS011;63814;50.118;8.714;2022-10-31T12:17:59;13.80;;;8.38;;
75230;SDS011;63814;50.118;8.714;2022-10-31T12:20:57;11.38;;;7.88;;
75230;SDS011;63814;50.118;8.714;2022-10-31T12:23:45;16.73;;;8.45;;
75230;SDS011;63814;50.118;8.714;2022-10-31T12:26:18;15.88;;;9.15;;
75230;SDS011;63814;50.118;8.714;2022-10-31T12:28:54;11.65;;;8.27;;
75230;SDS011;63814;50.118;8.714;2022-10-31T12:31:34;20.35;;;8.63;;
75230;SDS011;63814;50.118;8.714;2022-10-31T12:37:12;13.15;;;7.70;;
75230;SDS011;63814;50.118;8.714;2022-10-31T12:39:50;13.70;;;8.20;;
75230;SDS011;63814;50.118;8.714;2022-10-31T12:42:31;14.93;;;8.43;;
75230;SDS011;63814;50.118;8.714;2022-10-31T12:45:17;15.52;;;8.40;;
75230;SDS011;63814;50.118;8.714;2022-10-31T12:48:01;12.45;;;7.60;;
75230;SDS011;63814;50.118;8.714;2022-10-31T12:50:47;14.98;;;8.50;;
75230;SDS011;63814;50.118;8.714;2022-10-31T12:53:23;15.88;;;8.52;;
75230;SDS011;63814;50.118;8.714;2022-10-31T12:56:06;10.75;;;6.85;;
75230;SDS011;63814;50.118;8.714;2022-10-31T12:58:43;13.57;;;8.18;;
75230;SDS011;63814;50.118;8.714;2022-10-31T13:01:14;10.15;;;7.53;;
75230;SDS011;63814;50.118;8.714;2022-10-31T13:03:46;11.82;;;7.70;;
75230;SDS011;63814;50.118;8.714;2022-10-31T13:06:19;11.07;;;7.25;;
75230;SDS011;63814;50.118;8.714;2022-10-31T13:08:51;18.42;;;7.97;;
75230;SDS011;63814;50.118;8.714;2022-10-31T13:11:21;14.27;;;7.30;;
75230;SDS011;63814;50.118;8.714;2022-10-31T13:13:54;14.65;;;6.43;;
75230;SDS011;63814;50.118;8.714;2022-10-31T13:16:28;12.98;;;6.53;;
75230;SDS011;63814;50.118;8.714;2022-10-31T13:18:57;17.20;;;7.25;;
75230;SDS011;63814;50.118;8.714;2022-10-31T13:21:29;11.27;;;6.13;;
75230;SDS011;63814;50.118;8.714;2022-10-31T13:24:02;9.00;;;5.47;;
75230;SDS011;63814;50.118;8.714;2022-10-31T13:26:37;12.93;;;6.10;;
75230;SDS011;63814;50.118;8.714;2022-10-31T13:29:09;13.32;;;6.75;;
75230;SDS011;63814;50.118;8.714;2022-10-31T13:31:43;12.57;;;5.82;;
75230;SDS011;63814;50.118;8.714;2022-10-31T13:34:21;11.77;;;5.68;;
75230;SDS011;63814;50.118;8.714;2022-10-31T13:36:54;13.52;;;6.80;;
75230;SDS011;63814;50.118;8.714;2022-10-31T13:39:32;13.85;;;8.15;;
75230;SDS011;63814;50.118;8.714;2022-10-31T13:42:12;11.48;;;7.45;;
75230;SDS011;63814;50.118;8.714;2022-10-31T13:44:44;10.23;;;6.97;;
75230;SDS011;63814;50.118;8.714;2022-10-31T13:47:24;11.65;;;6.90;;
75230;SDS011;63814;50.118;8.714;2022-10-31T13:50:02;12.30;;;6.90;;
75230;SDS011;63814;50.118;8.714;2022-10-31T13:52:31;12.32;;;6.43;;
75230;SDS011;63814;50.118;8.714;2022-10-31T13:54:58;13.90;;;6.75;;
75230;SDS011;63814;50.118;8.714;2022-10-31T13:57:28;10.45;;;6.22;;
75230;SDS011;63814;50.118;8.714;2022-10-31T13:59:58;10.75;;;6.22;;
75230;SDS011;63814;50.118;8.714;2022-10-31T14:02:27;10.88;;;6.25;;
75230;SDS011;63814;50.118;8.714;2022-10-31T14:04:56;9.48;;;6.13;;
75230;SDS011;63814;50.118;8.714;2022-10-31T14:07:25;10.10;;;5.63;;
75230;SDS011;63814;50.118;8.714;2022-10-31T14:09:54;12.57;;;6.07;;
75230;SDS011;63814;50.118;8.714;2022-10-31T14:12:26;12.13;;;7.57;;
75230;SDS011;63814;50.118;8.714;2022-10-31T14:14:56;16.85;;;9.63;;
75230;SDS011;63814;50.118;8.714;2022-10-31T14:17:28;12.38;;;7.70;;
75230;SDS011;63814;50.118;8.714;2022-10-31T14:20:02;12.93;;;7.80;;
75230;SDS011;63814;50.118;8.714;2022-10-31T14:22:44;11.90;;;6.30;;
75230;SDS011;63814;50.118;8.714;2022-10-31T14:25:24;10.48;;;6.43;;
75230;SDS011;63814;50.118;8.714;2022-10-31T14:27:53;8.75;;;5.75;;
75230;SDS011;63814;50.118;8.714;2022-10-31T14:30:21;13.35;;;6.60;;
75230;SDS011;63814;50.118;8.714;2022-10-31T14:32:50;9.05;;;5.95;;
75230;SDS011;63814;50.118;8.714;2022-10-31T14:35:19;11.40;;;6.32;;
75230;SDS011;63814;50.118;8.714;2022-10-31T14:37:57;15.63;;;8.65;;
75230;SDS011;63814;50.118;8.714;2022-10-31T14:40:37;18.73;;;9.75;;
75230;SDS011;63814;50.118;8.714;2022-10-31T14:43:24;16.98;;;9.15;;
75230;SDS011;63814;50.118;8.714;2022-10-31T14:46:05;10.82;;;6.70;;
75230;SDS011;63814;50.118;8.714;2022-10-31T14:48:39;12.02;;;6.50;;
75230;SDS011;63814;50.118;8.714;2022-10-31T14:51:18;13.63;;;7.00;;
75230;SDS011;63814;50.118;8.714;2022-10-31T14:53:47;14.68;;;7.32;;
75230;SDS011;63814;50.118;8.714;2022-10-31T14:56:17;13.15;;;7.60;;
75230;SDS011;63814;50.118;8.714;2022-10-31T14:58:50;19.00;;;8.02;;